Partly Cloudy Current Weather (METAR) For Bournemouth Airport

All times on the weather descriptions are local

Observed at 09:20 - (31 mins ago)

Partly Cloudy

18°C

Partly Cloudy
Clouds: Scattered Clouds at 900ft, Scattered Clouds at 1,400ft
Wind: 240° at 11 knots
Visibility: Greater than 10km
QNH: 1009
Dew Point: 15°C
Runway in Use: Runway 26

Sunrise Today: 05:01
Sunset Today: 21:23

Forecast Weather (TAF) For Bournemouth Airport

Issued at 01:00 - (24 days ago)


Runway in Use: Unable to determine, wind is clam

Forecast valid until 01:00 on Friday

METAR/TAF RAW METAR / TAF

EGHH 070820Z 24011KT 9999 SCT009 SCT014 18/15 Q1009

Weather Widget

Put weather from any of our airports on your website with our weather widget.

Find Another Search

Airport Search


Please Wait Please Wait - Loading
Close
Close

Login

Username:

Password:

Remember Me:

Remember me on this computer

Forgotten your password? Get a reset password sent to your registered e-mail address

Close

User Private Message

Subject:

Message: